createdAt,value
2019-04-10T09:30:08.712Z,78.40
2019-04-10T09:32:38.881Z,79.80
2019-04-10T09:35:08.776Z,83.80
2019-04-10T09:37:38.023Z,73.30
2019-04-10T09:40:08.880Z,68.80
2019-04-10T09:42:37.624Z,67.30
2019-04-10T09:45:06.294Z,68.30
2019-04-10T09:47:35.015Z,66.90
2019-04-10T09:50:03.965Z,63.10
2019-04-10T09:52:32.656Z,65.40
2019-04-10T09:55:01.351Z,63.90
2019-04-10T09:57:30.027Z,65.10
2019-04-10T09:59:58.912Z,67.00
2019-04-10T10:02:27.794Z,65.50
2019-04-10T10:04:56.488Z,62.30
2019-04-10T10:07:26.255Z,65.40
2019-04-10T10:09:58.941Z,59.50
2019-04-10T10:12:25.717Z,63.50
2019-04-10T10:14:54.374Z,62.60
2019-04-10T10:17:23.037Z,64.30
2019-04-10T10:19:53.561Z,64.20
2019-04-10T10:22:23.109Z,63.60
2019-04-10T10:24:53.019Z,60.00
2019-04-10T10:39:47.613Z,54.30
2019-04-10T10:42:16.316Z,56.10
2019-04-10T10:44:45.944Z,58.50
2019-04-10T10:47:15.835Z,57.70
2019-04-10T10:49:44.581Z,55.40
2019-04-10T10:52:13.287Z,58.10
2019-04-10T10:54:43.145Z,59.60
2019-04-10T10:57:13.097Z,58.80
2019-04-10T10:59:46.087Z,58.80
2019-04-10T11:02:14.793Z,59.50
2019-04-10T11:04:43.473Z,55.20
2019-04-10T11:07:12.171Z,57.10
2019-04-10T11:09:41.913Z,58.20
2019-04-10T11:12:12.188Z,56.10
2019-04-10T11:14:41.334Z,55.30
2019-04-10T11:17:11.564Z,58.10
2019-04-10T11:19:41.239Z,60.10
2019-04-10T11:22:12.632Z,63.20
2019-04-10T11:24:41.291Z,58.10
2019-04-10T11:27:11.877Z,62.10
2019-04-10T11:29:40.905Z,62.90
2019-04-10T11:32:09.577Z,62.90
2019-04-10T11:34:38.311Z,63.80
2019-04-10T11:37:19.179Z,63.20
2019-04-10T11:39:40.417Z,64.60
2019-04-10T11:42:09.970Z,63.30
2019-04-10T11:44:39.608Z,63.80
2019-04-10T11:47:10.041Z,64.30
2019-04-10T11:49:42.777Z,67.80
2019-04-10T11:52:10.442Z,64.60
2019-04-10T11:54:41.362Z,62.70
2019-04-10T11:57:10.017Z,65.10
2019-04-10T11:59:41.053Z,65.60
2019-04-10T12:02:10.227Z,64.90
2019-04-10T12:04:52.067Z,65.20
2019-04-10T12:07:25.098Z,60.70
2019-04-10T12:12:11.264Z,62.70
2019-04-10T12:14:39.996Z,62.30
2019-04-10T12:17:09.671Z,59.60
2019-04-10T12:19:38.557Z,60.90
2019-04-10T12:22:07.494Z,59.50
2019-04-10T12:24:36.413Z,62.60
2019-04-10T12:27:06.488Z,61.50
2019-04-10T12:29:35.638Z,60.50
2019-04-10T12:32:04.905Z,57.80
2019-04-10T12:34:34.125Z,57.50
2019-04-10T12:37:02.941Z,57.90
2019-04-10T12:39:32.207Z,59.80
2019-04-10T12:42:00.905Z,57.80
2019-04-10T12:44:29.686Z,58.40
2019-04-10T12:46:59.501Z,61.60
2019-04-10T12:49:28.238Z,62.00
2019-04-10T12:51:56.940Z,64.70
2019-04-10T12:54:25.810Z,67.00
2019-04-10T12:56:54.721Z,64.20
2019-04-10T12:59:23.607Z,62.80
2019-04-10T13:01:53.912Z,62.20
2019-04-10T13:04:22.929Z,60.80
2019-04-10T13:06:52.736Z,63.40
2019-04-10T13:09:22.166Z,61.80
2019-04-10T13:11:51.180Z,61.80
2019-04-10T13:14:19.877Z,60.40
2019-04-10T13:16:50.829Z,62.80
2019-04-10T13:19:18.863Z,63.00
2019-04-10T13:21:47.561Z,64.40
2019-04-10T13:24:17.306Z,69.00
2019-04-10T13:26:46.172Z,66.10
2019-04-10T13:29:14.892Z,66.50
2019-04-10T13:31:44.426Z,68.00
2019-04-10T13:34:13.367Z,68.90
2019-04-10T13:36:42.063Z,66.70
2019-04-10T13:39:16.357Z,67.20
2019-04-10T13:41:44.975Z,67.70
2019-04-10T13:44:14.126Z,66.50
2019-04-10T13:46:42.917Z,65.40
2019-04-10T13:49:11.599Z,66.10
2019-04-10T13:51:40.397Z,65.10
2019-04-10T13:54:09.054Z,65.30
2019-04-10T13:56:37.751Z,65.70
2019-04-10T13:59:06.807Z,65.30
2019-04-10T14:09:22.572Z,64.70
2019-04-10T14:11:35.353Z,64.50
2019-04-10T14:14:06.545Z,68.90
2019-04-10T14:16:35.254Z,68.40
2019-04-10T14:19:03.966Z,69.20
2019-04-10T14:21:33.248Z,70.00
2019-04-10T14:24:04.078Z,68.20
2019-04-10T14:26:41.926Z,69.80
2019-04-10T14:29:05.287Z,69.80
2019-04-10T14:31:36.282Z,68.80
2019-04-10T14:34:04.985Z,70.50
2019-04-10T14:36:34.413Z,69.90
2019-04-10T14:39:12.178Z,68.40
2019-04-10T14:41:33.785Z,68.60
2019-04-10T14:44:03.997Z,69.00
2019-04-10T14:46:33.708Z,69.30
2019-04-10T14:49:02.797Z,69.10
2019-04-10T14:51:32.557Z,68.50
2019-04-10T14:54:01.696Z,67.70
2019-04-10T14:56:30.712Z,70.20
2019-04-10T14:58:59.743Z,68.40
2019-04-10T15:01:30.276Z,68.50
2019-04-10T15:03:59.138Z,69.80
2019-04-10T15:06:27.825Z,68.90
2019-04-10T15:08:57.672Z,68.80
2019-04-10T15:11:26.663Z,70.10
2019-04-10T15:13:55.486Z,71.20
2019-04-10T15:16:25.197Z,70.50
2019-04-10T15:18:54.211Z,70.80
2019-04-10T15:21:23.093Z,72.10
2019-04-10T15:23:51.776Z,72.40
2019-04-10T15:26:20.505Z,72.00
2019-04-10T15:28:51.973Z,70.70
2019-04-10T15:31:21.525Z,72.30
2019-04-10T15:33:50.434Z,71.80
2019-04-10T15:36:20.002Z,74.50
2019-04-10T15:38:48.788Z,74.00
2019-04-10T15:41:17.476Z,75.90
2019-04-10T15:43:47.713Z,75.40
2019-04-10T15:46:17.160Z,76.50
2019-04-10T15:48:46.094Z,76.00
2019-04-10T15:51:14.801Z,76.40
2019-04-10T15:53:45.191Z,77.60
2019-04-10T15:56:14.272Z,77.30
2019-04-10T15:58:43.808Z,78.10
2019-04-10T16:01:14.399Z,77.00
2019-04-10T16:03:43.089Z,77.10
2019-04-10T16:06:11.765Z,76.60
2019-04-10T16:08:40.645Z,77.90
2019-04-10T16:11:11.868Z,77.90
2019-04-10T16:13:42.460Z,77.20
2019-04-10T16:16:21.674Z,77.20
2019-04-10T16:18:52.843Z,78.80
2019-04-10T16:21:21.632Z,78.70
2019-04-10T16:23:51.901Z,77.80
2019-04-10T16:26:40.932Z,77.90
2019-04-10T16:29:10.138Z,78.30
2019-04-10T16:31:39.704Z,78.90
2019-04-10T16:34:09.210Z,79.00
2019-04-10T16:36:38.032Z,79.60
2019-04-10T16:39:11.299Z,79.20
2019-04-10T16:41:40.418Z,78.80
2019-04-10T16:44:09.096Z,79.20
2019-04-10T16:46:38.321Z,79.90
2019-04-10T16:49:07.255Z,80.10
2019-04-10T16:51:36.594Z,80.60
2019-04-10T16:54:06.261Z,80.50
2019-04-10T16:56:36.014Z,80.50
2019-04-10T16:59:04.777Z,80.10
2019-04-10T17:01:33.440Z,80.70
2019-04-10T17:04:02.781Z,81.10
2019-04-10T17:06:32.459Z,80.50
2019-04-10T17:09:02.634Z,80.50
2019-04-10T17:11:31.997Z,79.90
2019-04-10T17:14:00.868Z,80.10
2019-04-10T17:16:29.538Z,81.10
2019-04-10T17:18:59.224Z,81.00
2019-04-10T17:21:30.636Z,80.40
2019-04-10T17:23:58.750Z,80.80
2019-04-10T17:26:27.732Z,78.90
2019-04-10T17:28:56.633Z,79.80
2019-04-10T17:31:26.623Z,80.30
2019-04-10T17:33:56.665Z,79.20
2019-04-10T17:36:25.489Z,78.80
2019-04-10T17:38:55.284Z,79.40
2019-04-10T17:41:24.162Z,78.90
2019-04-10T17:43:54.426Z,79.50
2019-04-10T17:46:23.344Z,79.10
2019-04-10T17:48:52.013Z,79.40
2019-04-10T17:51:21.866Z,79.70
2019-04-10T17:53:51.005Z,79.80
2019-04-10T17:56:20.138Z,79.50
2019-04-10T17:58:49.792Z,80.30
2019-04-10T18:01:20.851Z,80.70
2019-04-10T18:03:52.210Z,80.20
2019-04-10T18:06:19.428Z,80.60
2019-04-10T18:08:49.282Z,79.60
2019-04-10T18:11:18.297Z,79.80
2019-04-10T18:13:47.040Z,79.10
2019-04-10T18:16:15.682Z,79.00
2019-04-10T18:18:45.705Z,79.40
2019-04-10T18:21:14.840Z,79.40
2019-04-10T18:23:43.933Z,79.20
2019-04-10T18:26:12.901Z,79.20
2019-04-10T18:28:41.608Z,78.60
2019-04-10T18:31:10.435Z,79.10
2019-04-10T18:33:39.517Z,78.80
2019-04-10T18:36:08.464Z,78.80
2019-04-10T18:38:57.641Z,79.50
2019-04-10T18:41:27.636Z,79.60
2019-04-10T18:43:56.602Z,79.70
2019-04-10T18:46:25.368Z,79.70
2019-04-10T18:48:54.944Z,79.80
2019-04-10T18:51:23.863Z,78.00
2019-04-10T18:53:53.370Z,78.70
2019-04-10T18:56:22.211Z,78.40
2019-04-10T18:58:52.461Z,77.30
2019-04-10T19:01:39.243Z,76.50
2019-04-10T19:04:12.138Z,75.70
2019-04-10T19:06:49.688Z,76.50
2019-04-10T19:09:24.538Z,76.60
2019-04-10T19:11:50.565Z,76.00
2019-04-10T19:14:20.720Z,75.90
2019-04-10T19:16:49.910Z,76.00
2019-04-10T19:19:18.672Z,76.00
2019-04-10T19:21:48.468Z,74.70
2019-04-10T19:24:17.473Z,74.60
2019-04-10T19:26:47.226Z,75.80
2019-04-10T19:29:17.130Z,75.50
2019-04-10T19:31:47.790Z,74.80
2019-04-10T19:34:16.994Z,74.20
2019-04-10T19:36:46.043Z,74.70
2019-04-10T19:39:16.007Z,74.10
2019-04-10T19:41:44.989Z,73.00
2019-04-10T19:44:14.839Z,73.60
2019-04-10T19:46:43.956Z,73.80
2019-04-10T19:49:12.772Z,73.80
2019-04-10T19:51:42.554Z,72.80
2019-04-10T19:54:11.527Z,72.90
2019-04-10T19:56:40.516Z,73.10
2019-04-10T19:59:10.312Z,73.80
2019-04-10T20:01:39.360Z,73.30
2019-04-10T20:04:08.286Z,72.40
2019-04-10T20:06:38.440Z,72.50
2019-04-10T20:09:08.438Z,72.50
2019-04-10T20:11:42.120Z,72.50
2019-04-10T20:14:08.304Z,73.40
2019-04-10T20:16:37.499Z,72.40
2019-04-10T20:19:07.551Z,72.70
2019-04-10T20:21:36.498Z,72.90
2019-04-10T20:24:05.158Z,72.20
2019-04-10T20:26:34.882Z,72.80
2019-04-10T20:29:04.592Z,72.40
2019-04-10T20:31:34.974Z,72.90
2019-04-10T20:34:05.333Z,72.10
2019-04-10T20:36:35.269Z,73.00
2019-04-10T20:39:06.186Z,73.10
2019-04-10T20:41:47.682Z,73.50
2019-04-10T20:44:07.189Z,73.70
2019-04-10T20:46:36.233Z,73.90
2019-04-10T20:49:07.606Z,74.10
2019-04-10T20:51:35.228Z,73.80
2019-04-10T20:54:04.387Z,73.90
2019-04-10T20:56:52.470Z,74.80
2019-04-10T20:59:21.160Z,73.70
2019-04-10T21:01:49.825Z,74.80
2019-04-10T21:04:18.529Z,73.70
2019-04-10T21:06:48.170Z,73.60
2019-04-10T21:09:17.267Z,73.60
2019-04-10T21:11:58.005Z,74.00
2019-04-10T21:14:16.301Z,74.10
2019-04-10T21:16:44.972Z,75.60
2019-04-10T21:19:13.672Z,75.20
2019-04-10T21:21:43.342Z,74.50
2019-04-10T21:24:13.345Z,74.50
2019-04-10T21:26:42.207Z,74.40
2019-04-10T21:29:12.795Z,73.20
2019-04-10T21:31:59.088Z,73.80
2019-04-10T21:34:32.556Z,73.60
2019-04-10T21:37:01.835Z,72.30
2019-04-10T21:39:31.785Z,72.60
2019-04-10T21:42:12.019Z,72.80
2019-04-10T21:44:31.079Z,72.80
2019-04-10T21:46:59.770Z,73.30
2019-04-10T21:49:28.449Z,72.70
2019-04-10T21:51:57.902Z,73.60
2019-04-10T21:54:27.010Z,73.20
2019-04-10T21:56:55.981Z,72.80
2019-04-10T21:59:24.839Z,71.90
2019-04-10T22:01:53.646Z,72.90
2019-04-10T22:04:23.170Z,73.20
2019-04-10T22:07:05.534Z,73.00
2019-04-10T22:09:39.075Z,73.20
2019-04-10T22:12:22.187Z,73.80
2019-04-10T22:14:39.896Z,73.40
2019-04-10T22:17:10.778Z,73.60
2019-04-10T22:19:40.913Z,74.70
2019-04-10T22:22:11.230Z,74.50
2019-04-10T22:24:40.538Z,75.20
2019-04-10T22:27:09.422Z,74.60
2019-04-10T22:29:38.944Z,75.10
2019-04-10T22:32:08.665Z,75.90
2019-04-10T22:34:38.460Z,75.80
2019-04-10T22:37:07.162Z,74.20
2019-04-10T22:39:35.928Z,74.20
2019-04-10T22:42:05.838Z,75.10
2019-04-10T22:44:40.218Z,75.90
2019-04-10T22:47:05.117Z,75.70
2019-04-10T22:49:34.963Z,76.30
2019-04-10T22:52:04.689Z,75.80
2019-04-10T22:54:34.406Z,76.50
2019-04-10T22:57:03.390Z,75.50
2019-04-10T22:59:32.652Z,76.70
2019-04-10T23:02:07.356Z,76.70
2019-04-10T23:04:32.571Z,75.90
2019-04-10T23:07:01.758Z,75.40
2019-04-10T23:09:30.662Z,74.90
2019-04-10T23:12:00.188Z,75.60
2019-04-10T23:14:29.132Z,76.30
2019-04-10T23:16:57.793Z,76.40
2019-04-10T23:19:26.492Z,74.90
2019-04-10T23:21:55.177Z,74.70
2019-04-10T23:24:23.852Z,74.90
2019-04-10T23:26:53.379Z,74.80
2019-04-10T23:29:22.372Z,75.40
2019-04-10T23:31:52.015Z,76.10
2019-04-10T23:34:20.957Z,75.60
2019-04-10T23:36:50.673Z,77.20
2019-04-10T23:39:19.798Z,76.20
2019-04-10T23:41:50.917Z,77.20
2019-04-10T23:44:18.867Z,76.90
2019-04-10T23:46:47.557Z,76.90
2019-04-10T23:49:17.154Z,77.10
2019-04-10T23:51:47.353Z,77.60
2019-04-10T23:54:17.256Z,78.50
2019-04-10T23:56:49.091Z,79.30
2019-04-10T23:59:16.337Z,79.80
